Terminal Aerodrome Forecast
Issued by NWS

Home | Current Version | Previous Version | Text Only | Print | Product List | Glossary On
Versions: 1 2 3 4 5 6 7 8 9 10 11 12 13 14 15 16 17
000
FTUS44 KLZK 221100
TAFBPK
TAF
KBPK 221131Z 2212/2312 14003KT 6SM BR FEW001 SCT250
      TEMPO 2212/2213 4SM BR SCT001
     FM221400 15005KT P6SM SKC
     FM221900 17007KT P6SM SCT035 SCT250
     FM230000 17003KT P6SM SCT250=

USA.gov is the U.S. government's official web portal to all federal, state and local government web resources and services.